Time;durP1;ratioP1;P1;durP2;ratioP2;P2;SDS_P1;SDS_P2;PMS_P1;PMS_P2;Temp;Humidity;BMP_temperature;BMP_pressure;BME280_temperature;BME280_humidity;BME280_pressure;Samples;Min_cycle;Max_cycle;Signal;HPM_P1;HPM_P2
2020/12/22 00:01:42;;;;;;;4.70;4.40;;;11.40;99.90;;;;;;5050105;28;21060;-49
2020/12/22 00:04:10;;;;;;;5.97;5.47;;;11.50;99.90;;;;;;5059998;28;20775;-50
2020/12/22 00:06:36;;;;;;;3.50;3.20;;;11.70;99.90;;;;;;5060633;28;20668;-51
2020/12/22 00:09:03;;;;;;;3.10;2.90;;;12.00;99.90;;;;;;5070403;28;20687;-52
2020/12/22 00:11:31;;;;;;;4.27;3.87;;;12.00;99.90;;;;;;5069373;28;20844;-51
2020/12/22 00:13:58;;;;;;;3.73;3.43;;;11.80;99.90;;;;;;5066582;28;21148;-51
2020/12/22 00:16:32;;;;;;;3.33;3.03;;;11.70;99.90;;;;;;5064922;28;20762;-52
2020/12/22 00:18:59;;;;;;;4.57;3.87;;;11.60;99.90;;;;;;5050192;28;21080;-51
2020/12/22 00:21:29;;;;;;;3.93;3.60;;;11.60;99.90;;;;;;5055393;28;20715;-52
2020/12/22 00:23:56;;;;;;;3.60;3.30;;;11.50;99.90;;;;;;5051029;28;20654;-51
2020/12/22 00:26:22;;;;;;;3.10;2.90;;;11.60;99.90;;;;;;5050097;28;20658;-51
2020/12/22 00:28:49;;;;;;;2.73;2.53;;;11.50;99.90;;;;;;5051822;28;21007;-51
2020/12/22 00:31:16;;;;;;;7.20;3.40;;;11.50;99.90;;;;;;5061186;28;20668;-52
2020/12/22 00:33:43;;;;;;;3.50;3.20;;;11.50;99.90;;;;;;5050506;28;20653;-50
2020/12/22 00:36:10;;;;;;;4.47;4.10;;;11.50;99.90;;;;;;5062349;28;20613;-50
2020/12/22 00:38:37;;;;;;;2.63;2.43;;;11.50;99.90;;;;;;5069934;28;21015;-50
2020/12/22 00:41:04;;;;;;;3.40;3.00;;;11.60;99.90;;;;;;5069800;28;20657;-49
2020/12/22 00:43:31;;;;;;;2.70;2.50;;;11.60;99.90;;;;;;5064133;28;20707;-49
2020/12/22 00:45:57;;;;;;;2.80;2.57;;;11.60;99.90;;;;;;5066807;28;20660;-50
2020/12/22 00:48:24;;;;;;;3.07;2.77;;;11.60;99.90;;;;;;5060525;28;20676;-49
2020/12/22 00:50:51;;;;;;;2.90;2.70;;;11.60;99.90;;;;;;5080161;28;20652;-49
2020/12/22 00:53:18;;;;;;;2.40;2.20;;;11.60;99.90;;;;;;5070786;28;20671;-50
2020/12/22 00:55:45;;;;;;;3.20;2.93;;;11.60;99.90;;;;;;5069842;28;20621;-48
2020/12/22 00:58:12;;;;;;;2.53;2.33;;;11.60;99.90;;;;;;5069049;28;20698;-49
2020/12/22 01:00:39;;;;;;;3.10;2.60;;;11.60;99.90;;;;;;5069161;28;21003;-48
2020/12/22 01:03:06;;;;;;;3.37;2.83;;;11.70;99.90;;;;;;5057373;28;20621;-48
2020/12/22 01:05:33;;;;;;;2.00;1.90;;;11.70;99.90;;;;;;5049877;28;20657;-49
2020/12/22 01:08:00;;;;;;;1.90;1.80;;;11.70;99.90;;;;;;5066756;28;21263;-50
2020/12/22 01:10:27;;;;;;;3.20;2.90;;;11.70;99.90;;;;;;5069619;28;20657;-52
2020/12/22 01:12:54;;;;;;;3.10;2.57;;;11.70;99.90;;;;;;5069054;28;20686;-49
2020/12/22 01:15:21;;;;;;;2.30;2.10;;;11.80;99.90;;;;;;5068979;28;20629;-52
2020/12/22 01:17:47;;;;;;;2.80;2.60;;;11.80;99.90;;;;;;5069368;28;20753;-51
2020/12/22 01:20:14;;;;;;;3.20;2.87;;;11.70;99.90;;;;;;5075387;28;20746;-52
2020/12/22 01:22:41;;;;;;;3.17;2.77;;;11.70;99.90;;;;;;5088882;28;20701;-52
2020/12/22 01:25:08;;;;;;;3.57;2.90;;;11.80;99.90;;;;;;5089033;28;20694;-52
2020/12/22 01:27:36;;;;;;;3.30;3.10;;;11.80;99.90;;;;;;5089447;28;20644;-51
2020/12/22 01:30:02;;;;;;;2.23;1.80;;;11.80;99.90;;;;;;5077701;28;20653;-51
2020/12/22 01:32:30;;;;;;;3.40;3.10;;;11.80;99.90;;;;;;5069132;28;20948;-52
2020/12/22 01:34:56;;;;;;;2.80;2.50;;;11.80;99.90;;;;;;5068654;28;20671;-51
2020/12/22 01:37:23;;;;;;;3.60;3.30;;;11.80;99.90;;;;;;5067852;28;20671;-51
2020/12/22 01:39:50;;;;;;;3.00;2.77;;;11.90;99.90;;;;;;5069087;28;20762;-52
2020/12/22 01:42:16;;;;;;;3.03;2.50;;;11.90;99.90;;;;;;5068639;28;20661;-51
2020/12/22 01:44:44;;;;;;;2.90;2.70;;;12.00;99.90;;;;;;5051246;28;20706;-53
2020/12/22 01:47:11;;;;;;;1.80;1.70;;;12.00;99.90;;;;;;5068420;28;20664;-51
2020/12/22 01:49:38;;;;;;;2.40;2.20;;;12.00;99.90;;;;;;5069769;28;20652;-50
2020/12/22 01:52:04;;;;;;;2.17;1.97;;;12.00;99.90;;;;;;5083383;28;20617;-51
2020/12/22 01:54:31;;;;;;;1.87;1.77;;;12.00;99.90;;;;;;5069190;28;20660;-52
2020/12/22 01:56:58;;;;;;;1.90;1.80;;;12.00;99.90;;;;;;5068212;28;20685;-51
2020/12/22 01:59:25;;;;;;;2.43;2.27;;;12.10;99.90;;;;;;5068374;28;20796;-51
2020/12/22 02:01:53;;;;;;;1.80;1.70;;;12.10;99.90;;;;;;5069281;28;21137;-53
2020/12/22 02:04:20;;;;;;;2.53;2.33;;;12.10;99.90;;;;;;5068384;28;20682;-52
2020/12/22 02:06:46;;;;;;;2.30;2.13;;;12.10;99.90;;;;;;5065296;28;20757;-52
2020/12/22 02:09:13;;;;;;;1.77;1.67;;;12.20;99.90;;;;;;5066120;28;20703;-50
2020/12/22 02:11:40;;;;;;;2.10;2.00;;;12.20;99.90;;;;;;5069084;28;20665;-52
2020/12/22 02:14:08;;;;;;;4.30;3.00;;;12.20;99.90;;;;;;5068661;28;21184;-50
2020/12/22 02:16:35;;;;;;;1.70;1.60;;;12.30;99.90;;;;;;5069383;28;20632;-52
2020/12/22 02:19:02;;;;;;;2.77;2.57;;;12.30;99.90;;;;;;5069021;28;21201;-52
2020/12/22 02:21:30;;;;;;;3.20;2.90;;;12.30;99.90;;;;;;5068808;28;20695;-51
2020/12/22 02:23:57;;;;;;;2.67;2.43;;;12.30;99.90;;;;;;5050190;28;20630;-52
2020/12/22 02:26:24;;;;;;;1.80;1.70;;;12.30;99.90;;;;;;5048796;28;20633;-51
2020/12/22 02:28:51;;;;;;;2.03;1.83;;;12.30;99.90;;;;;;5048790;28;20689;-52
2020/12/22 02:31:18;;;;;;;2.23;1.90;;;12.30;99.90;;;;;;5060260;28;20664;-51
2020/12/22 02:33:45;;;;;;;2.57;2.37;;;12.30;99.90;;;;;;5070226;28;20783;-52
2020/12/22 02:36:12;;;;;;;1.90;1.80;;;12.30;99.90;;;;;;5072557;28;21210;-52
2020/12/22 02:38:40;;;;;;;1.87;1.77;;;12.40;99.90;;;;;;5072847;28;21041;-52
2020/12/22 02:41:07;;;;;;;2.23;2.03;;;12.30;99.90;;;;;;5071008;28;20700;-49
2020/12/22 02:43:34;;;;;;;1.63;1.50;;;12.30;99.90;;;;;;5072669;28;20653;-50
2020/12/22 02:46:00;;;;;;;1.90;1.80;;;12.40;99.90;;;;;;5071318;28;21026;-49
2020/12/22 02:48:27;;;;;;;1.93;1.83;;;12.40;99.90;;;;;;5073133;28;20696;-48
2020/12/22 02:50:54;;;;;;;1.80;1.70;;;12.40;99.90;;;;;;5072829;28;21196;-50
2020/12/22 02:53:21;;;;;;;2.47;2.27;;;12.40;99.90;;;;;;5072388;28;20644;-50
2020/12/22 02:55:48;;;;;;;3.27;3.07;;;12.40;99.90;;;;;;5072364;28;20623;-52
2020/12/22 02:58:15;;;;;;;3.63;3.33;;;12.40;99.90;;;;;;5071946;28;20730;-51
2020/12/22 03:00:42;;;;;;;3.87;3.53;;;12.40;99.90;;;;;;5072240;28;20680;-52
2020/12/22 03:03:09;;;;;;;3.77;3.47;;;12.30;99.90;;;;;;5072864;28;20628;-52
2020/12/22 03:05:36;;;;;;;4.63;4.23;;;12.30;99.90;;;;;;5072131;28;20621;-53
2020/12/22 03:08:03;;;;;;;4.23;3.93;;;12.30;99.90;;;;;;5057573;28;20692;-51
2020/12/22 03:10:29;;;;;;;3.03;2.83;;;12.30;99.90;;;;;;5072133;28;21180;-52
2020/12/22 03:12:57;;;;;;;4.53;4.13;;;12.30;99.90;;;;;;5072183;28;20679;-51
2020/12/22 03:15:24;;;;;;;3.77;3.47;;;12.30;99.90;;;;;;5072211;28;20663;-53
2020/12/22 03:17:50;;;;;;;5.10;4.70;;;12.30;99.90;;;;;;5071636;28;20692;-51
2020/12/22 03:20:17;;;;;;;4.20;3.90;;;12.30;99.90;;;;;;5078762;28;20692;-52
2020/12/22 03:22:44;;;;;;;5.60;4.60;;;12.30;99.90;;;;;;5079598;28;21052;-53
2020/12/22 03:25:11;;;;;;;5.00;4.60;;;12.30;99.90;;;;;;5071782;28;20639;-53
2020/12/22 03:27:38;;;;;;;4.47;4.13;;;12.30;99.90;;;;;;5071668;28;21274;-52
2020/12/22 03:30:06;;;;;;;3.97;3.67;;;12.30;99.90;;;;;;5071882;28;20667;-51
2020/12/22 03:32:33;;;;;;;7.60;4.23;;;12.30;99.90;;;;;;5071958;28;20656;-50
2020/12/22 03:35:00;;;;;;;5.10;4.70;;;12.30;99.90;;;;;;5071807;28;20660;-52
2020/12/22 03:37:26;;;;;;;3.40;3.10;;;12.30;99.90;;;;;;5071359;28;20660;-49
2020/12/22 03:39:55;;;;;;;5.13;4.50;;;12.30;99.90;;;;;;5071969;28;20684;-51
2020/12/22 03:42:22;;;;;;;4.00;3.70;;;12.30;99.90;;;;;;5072119;28;20664;-51
2020/12/22 03:44:49;;;;;;;2.60;2.40;;;12.40;99.90;;;;;;5070675;28;20625;-50
2020/12/22 03:47:17;;;;;;;2.93;2.73;;;12.40;99.90;;;;;;5069861;28;20667;-50
2020/12/22 03:49:43;;;;;;;3.40;3.20;;;12.40;99.90;;;;;;5071382;28;21082;-52
2020/12/22 03:52:10;;;;;;;3.20;3.00;;;12.40;99.90;;;;;;5087423;28;20652;-49
2020/12/22 03:54:37;;;;;;;3.33;3.03;;;12.40;99.90;;;;;;5071025;28;20806;-48
2020/12/22 03:57:04;;;;;;;3.30;3.10;;;12.40;99.90;;;;;;5071746;28;20974;-50
2020/12/22 03:59:32;;;;;;;2.63;2.43;;;12.40;99.90;;;;;;5070721;28;21251;-49
2020/12/22 04:01:59;;;;;;;2.23;2.13;;;12.40;99.90;;;;;;5071457;28;21184;-50
2020/12/22 04:04:27;;;;;;;3.10;1.87;;;12.50;99.90;;;;;;5071025;28;20668;-50
2020/12/22 04:06:53;;;;;;;1.90;1.80;;;12.50;99.90;;;;;;5068798;28;20657;-51
2020/12/22 04:09:20;;;;;;;1.83;1.73;;;12.50;99.90;;;;;;5064390;28;21216;-51
2020/12/22 04:11:47;;;;;;;1.27;1.20;;;12.50;99.90;;;;;;5069899;28;20681;-49
2020/12/22 04:14:14;;;;;;;2.20;1.40;;;12.50;99.90;;;;;;5071077;28;20666;-51
2020/12/22 04:16:41;;;;;;;1.47;1.30;;;12.50;99.90;;;;;;5071349;28;21137;-51
2020/12/22 04:19:08;;;;;;;1.80;1.70;;;12.50;99.90;;;;;;5052527;28;21029;-52
2020/12/22 04:21:36;;;;;;;1.47;1.30;;;12.60;99.90;;;;;;5071354;28;20693;-51
2020/12/22 04:24:02;;;;;;;1.40;1.20;;;12.60;99.90;;;;;;5070653;28;20664;-51
2020/12/22 04:26:29;;;;;;;1.67;1.10;;;12.60;99.90;;;;;;5070599;28;20656;-51
2020/12/22 04:28:56;;;;;;;3.90;1.67;;;12.60;99.90;;;;;;5070579;28;21024;-53
2020/12/22 04:31:23;;;;;;;1.33;1.23;;;12.70;99.90;;;;;;5071007;28;20625;-50
2020/12/22 04:33:50;;;;;;;0.83;0.83;;;12.70;99.90;;;;;;5070058;28;20765;-51
2020/12/22 04:36:16;;;;;;;1.40;1.27;;;12.60;99.90;;;;;;5070690;28;20661;-49
2020/12/22 04:38:44;;;;;;;1.23;1.13;;;12.70;99.90;;;;;;5070451;28;20660;-49
2020/12/22 04:41:12;;;;;;;0.97;0.80;;;12.60;99.90;;;;;;5070449;28;20712;-51
2020/12/22 04:43:39;;;;;;;1.10;1.00;;;12.70;99.90;;;;;;5070245;28;20726;-51
2020/12/22 04:46:06;;;;;;;1.30;1.20;;;12.70;99.90;;;;;;5070152;28;20665;-52
2020/12/22 04:48:35;;;;;;;1.90;0.97;;;12.70;99.90;;;;;;5070191;28;20686;-50
2020/12/22 04:51:01;;;;;;;1.00;0.90;;;12.70;99.90;;;;;;5083188;28;20656;-53
2020/12/22 04:53:28;;;;;;;2.00;0.90;;;12.70;99.90;;;;;;5090938;28;20648;-52
2020/12/22 04:55:56;;;;;;;2.00;1.20;;;12.70;99.90;;;;;;5065496;28;21045;-52
2020/12/22 04:58:23;;;;;;;1.20;1.10;;;12.70;99.90;;;;;;5056791;28;21068;-51
2020/12/22 05:00:50;;;;;;;1.17;1.07;;;12.70;99.90;;;;;;5032019;28;20646;-52
2020/12/22 05:03:17;;;;;;;1.27;0.93;;;12.70;99.90;;;;;;5056982;28;20679;-52
2020/12/22 05:05:44;;;;;;;1.23;1.13;;;12.70;99.90;;;;;;5061168;28;20664;-52
2020/12/22 05:08:11;;;;;;;1.67;1.20;;;12.70;99.90;;;;;;5062236;28;21040;-53
2020/12/22 05:10:40;;;;;;;1.23;1.13;;;12.70;99.90;;;;;;5050080;28;20649;-50
2020/12/22 05:13:08;;;;;;;1.50;1.30;;;12.70;99.90;;;;;;5049955;28;21052;-53
2020/12/22 05:15:35;;;;;;;1.40;0.90;;;12.70;99.90;;;;;;5031879;28;21254;-53
2020/12/22 05:18:02;;;;;;;1.27;1.17;;;12.70;99.90;;;;;;5049413;28;20700;-49
2020/12/22 05:20:29;;;;;;;1.93;1.10;;;12.70;99.90;;;;;;5066822;28;20684;-53
2020/12/22 05:22:55;;;;;;;1.17;1.07;;;12.70;99.90;;;;;;5065886;28;20826;-52
2020/12/22 05:25:22;;;;;;;1.20;1.00;;;12.80;99.90;;;;;;5049689;28;20649;-53
2020/12/22 05:27:50;;;;;;;2.80;1.00;;;12.70;99.90;;;;;;5049397;28;20658;-52
2020/12/22 05:30:18;;;;;;;1.63;1.20;;;12.70;99.90;;;;;;5049975;28;20993;-53
2020/12/22 05:32:48;;;;;;;1.23;1.17;;;12.70;99.90;;;;;;5049988;28;20649;-52
2020/12/22 05:35:15;;;;;;;0.90;0.90;;;12.70;99.90;;;;;;5050185;28;20653;-52
2020/12/22 05:37:42;;;;;;;2.07;1.87;;;12.70;99.90;;;;;;5063694;28;21239;-51
2020/12/22 05:40:10;;;;;;;0.97;0.90;;;12.80;99.90;;;;;;5050753;28;20658;-49
2020/12/22 05:42:36;;;;;;;1.30;1.20;;;12.80;99.90;;;;;;5054729;28;20668;-50
2020/12/22 05:45:04;;;;;;;2.00;1.20;;;12.80;99.90;;;;;;5069745;28;20630;-49
2020/12/22 05:47:32;;;;;;;1.20;1.00;;;12.70;99.90;;;;;;5069515;28;20625;-50
2020/12/22 05:49:59;;;;;;;2.80;1.30;;;12.70;99.90;;;;;;5074113;28;20702;-50
2020/12/22 05:52:26;;;;;;;1.20;1.10;;;12.70;99.90;;;;;;5089338;28;21019;-49
2020/12/22 05:54:53;;;;;;;1.23;1.00;;;12.70;99.90;;;;;;5083200;28;21208;-53
2020/12/22 05:57:21;;;;;;;0.90;0.90;;;12.70;99.90;;;;;;5069362;28;20645;-53
2020/12/22 05:59:48;;;;;;;1.57;1.47;;;12.70;99.90;;;;;;5068916;28;20764;-53
2020/12/22 06:02:28;;;;;;;1.57;1.47;;;12.70;99.90;;;;;;5069275;28;21212;-53
2020/12/22 06:04:57;;;;;;;1.20;1.10;;;12.70;99.90;;;;;;5069481;28;20981;-53
2020/12/22 06:07:24;;;;;;;1.67;1.57;;;12.70;99.90;;;;;;5069500;28;20677;-53
2020/12/22 06:09:51;;;;;;;1.20;1.10;;;12.70;99.90;;;;;;5071905;28;20692;-52
2020/12/22 06:12:18;;;;;;;1.87;1.70;;;12.70;99.90;;;;;;5070264;28;20684;-49
2020/12/22 06:14:46;;;;;;;1.90;1.57;;;12.70;99.90;;;;;;5065070;28;20621;-54
2020/12/22 06:17:13;;;;;;;1.40;1.30;;;12.70;99.90;;;;;;5054716;28;20653;-53
2020/12/22 06:19:41;;;;;;;2.50;1.47;;;12.80;99.90;;;;;;5067294;28;20668;-53
2020/12/22 06:22:10;;;;;;;2.30;1.50;;;12.80;99.90;;;;;;5093829;28;20696;-53
2020/12/22 06:24:37;;;;;;;2.43;2.20;;;12.70;99.90;;;;;;5080397;28;20730;-54
2020/12/22 06:27:04;;;;;;;1.47;1.37;;;12.70;99.90;;;;;;5072959;28;20656;-53
2020/12/22 06:29:31;;;;;;;3.27;2.43;;;12.70;99.90;;;;;;5073032;28;21211;-53
2020/12/22 06:32:14;;;;;;;1.33;1.23;;;12.70;99.90;;;;;;5061582;28;20661;-52
2020/12/22 06:34:41;;;;;;;2.20;1.57;;;12.80;99.90;;;;;;5052936;28;20882;-53
2020/12/22 06:37:09;;;;;;;2.30;1.60;;;12.70;99.90;;;;;;5052494;28;20640;-50
2020/12/22 06:39:42;;;;;;;2.60;1.80;;;12.80;99.90;;;;;;5053358;28;20697;-50
2020/12/22 06:42:09;;;;;;;1.30;1.20;;;12.70;99.90;;;;;;5053503;28;20696;-53
2020/12/22 06:44:36;;;;;;;1.00;0.80;;;12.80;99.90;;;;;;5052844;28;20661;-51
2020/12/22 06:47:04;;;;;;;1.70;1.60;;;12.80;99.90;;;;;;5052795;28;21162;-52
2020/12/22 06:49:49;;;;;;;1.40;1.30;;;12.70;99.90;;;;;;5053906;28;20684;-53
2020/12/22 06:52:31;;;;;;;1.50;1.40;;;12.70;99.90;;;;;;5081934;28;20625;-52
2020/12/22 06:54:58;;;;;;;1.97;1.10;;;12.70;99.90;;;;;;5072322;28;20999;-53
2020/12/22 06:57:44;;;;;;;2.23;1.40;;;12.70;99.90;;;;;;5072696;28;20640;-53
2020/12/22 07:00:22;;;;;;;1.20;1.00;;;12.80;99.90;;;;;;5072287;28;20929;-50
2020/12/22 07:02:48;;;;;;;1.97;1.37;;;12.80;99.90;;;;;;5072477;28;20660;-50
2020/12/22 07:05:36;;;;;;;1.40;1.30;;;12.80;99.90;;;;;;5072453;28;20661;-49
2020/12/22 07:08:03;;;;;;;3.30;1.53;;;12.80;99.90;;;;;;5072027;28;20680;-51
2020/12/22 07:10:30;;;;;;;1.33;1.23;;;12.80;99.90;;;;;;5072431;28;20653;-52
2020/12/22 07:12:57;;;;;;;1.80;1.00;;;12.80;99.90;;;;;;5072080;28;20643;-51
2020/12/22 07:15:31;;;;;;;1.77;1.67;;;12.80;99.90;;;;;;5072138;28;20629;-52
2020/12/22 07:18:05;;;;;;;1.43;1.33;;;12.90;99.90;;;;;;5071986;28;20680;-49
2020/12/22 07:20:32;;;;;;;1.17;1.10;;;12.90;99.90;;;;;;5079358;28;21152;-50
2020/12/22 07:22:59;;;;;;;3.10;1.60;;;12.90;99.90;;;;;;5091880;28;20631;-50
2020/12/22 07:25:28;;;;;;;1.50;1.40;;;12.90;99.90;;;;;;5092779;28;20648;-50
2020/12/22 07:27:54;;;;;;;2.50;1.97;;;12.90;99.90;;;;;;5092391;28;20751;-51
2020/12/22 07:30:21;;;;;;;2.13;1.10;;;12.90;99.90;;;;;;5092414;28;21043;-50
2020/12/22 07:32:48;;;;;;;1.70;1.57;;;12.90;99.90;;;;;;5092685;28;20620;-49
2020/12/22 07:35:15;;;;;;;2.43;1.67;;;13.00;99.90;;;;;;5092215;28;20658;-51
2020/12/22 07:37:41;;;;;;;2.30;1.70;;;13.00;99.90;;;;;;5073029;28;20640;-52
2020/12/22 07:40:08;;;;;;;2.00;1.27;;;13.00;99.90;;;;;;5071627;28;20652;-52
2020/12/22 07:42:36;;;;;;;2.73;1.53;;;13.00;99.90;;;;;;5047608;28;20681;-52
2020/12/22 07:45:04;;;;;;;1.77;1.40;;;13.00;99.90;;;;;;5069871;28;20621;-52
2020/12/22 07:47:31;;;;;;;2.03;1.63;;;13.00;99.90;;;;;;5071535;28;20636;-51
2020/12/22 07:50:14;;;;;;;1.23;1.13;;;13.00;99.90;;;;;;5073398;28;20675;-52
2020/12/22 07:52:40;;;;;;;1.20;1.10;;;13.10;99.90;;;;;;5070089;28;20692;-52
2020/12/22 07:55:08;;;;;;;1.30;1.20;;;13.10;99.90;;;;;;5067511;28;20689;-53
2020/12/22 07:57:39;;;;;;;4.10;1.10;;;13.10;99.90;;;;;;5070683;28;20660;-51
2020/12/22 08:00:07;;;;;;;2.83;1.27;;;13.10;99.90;;;;;;5051220;28;21035;-49
2020/12/22 08:02:34;;;;;;;4.63;1.70;;;13.10;99.90;;;;;;5051538;28;20716;-50
2020/12/22 08:05:09;;;;;;;2.73;1.20;;;13.10;99.90;;;;;;5058701;28;21199;-51
2020/12/22 08:07:36;;;;;;;1.83;1.30;;;13.10;99.90;;;;;;5071590;28;20664;-49
2020/12/22 08:10:09;;;;;;;1.67;1.33;;;13.10;99.90;;;;;;5054139;28;20629;-49
2020/12/22 08:12:37;;;;;;;1.80;1.60;;;13.20;99.90;;;;;;5071239;28;20649;-50
2020/12/22 08:15:05;;;;;;;2.10;1.83;;;13.20;99.90;;;;;;5067986;28;20668;-50
2020/12/22 08:17:33;;;;;;;2.93;1.30;;;13.20;99.90;;;;;;5070226;28;20625;-49
2020/12/22 08:20:01;;;;;;;2.63;1.40;;;13.20;99.90;;;;;;5074704;28;20636;-48
2020/12/22 08:22:27;;;;;;;1.53;1.40;;;13.50;99.90;;;;;;5083771;28;21119;-48
2020/12/22 08:24:54;;;;;;;1.97;1.83;;;13.70;99.90;;;;;;5069778;28;20660;-50
2020/12/22 08:27:21;;;;;;;2.00;1.10;;;14.00;99.90;;;;;;5069679;28;20668;-49
2020/12/22 08:29:48;;;;;;;2.33;1.57;;;14.10;99.90;;;;;;5069575;28;20771;-49
2020/12/22 08:32:16;;;;;;;3.57;1.60;;;14.10;99.90;;;;;;5069439;28;20649;-50
2020/12/22 08:34:44;;;;;;;3.03;1.53;;;14.00;99.90;;;;;;5069439;28;20709;-50
2020/12/22 08:37:11;;;;;;;2.57;1.20;;;13.90;99.90;;;;;;5066332;28;20617;-51
2020/12/22 08:39:38;;;;;;;1.40;1.30;;;13.80;99.90;;;;;;5053984;28;20703;-49
2020/12/22 08:42:07;;;;;;;2.57;2.00;;;13.80;99.90;;;;;;5054529;28;20700;-48
2020/12/22 08:44:34;;;;;;;2.87;1.40;;;13.70;99.90;;;;;;5069925;28;20664;-48
2020/12/22 08:47:10;;;;;;;1.40;1.30;;;13.70;99.90;;;;;;5070065;28;20629;-49
2020/12/22 08:49:37;;;;;;;1.47;1.23;;;13.70;99.90;;;;;;5070034;28;20734;-50
2020/12/22 08:52:09;;;;;;;3.83;1.33;;;13.70;99.90;;;;;;5069801;28;20661;-49
2020/12/22 08:54:35;;;;;;;1.33;0.80;;;13.60;99.90;;;;;;5068644;28;20649;-48
2020/12/22 08:57:09;;;;;;;2.80;1.13;;;13.70;99.90;;;;;;5069222;28;20637;-50
2020/12/22 08:59:36;;;;;;;1.83;1.33;;;13.70;99.90;;;;;;5068828;28;20700;-49
2020/12/22 09:02:03;;;;;;;1.50;1.00;;;13.70;99.90;;;;;;5069421;28;21307;-47
2020/12/22 09:04:31;;;;;;;1.70;1.00;;;13.70;99.90;;;;;;5070291;28;20637;-48
2020/12/22 09:06:58;;;;;;;2.47;1.00;;;13.80;99.90;;;;;;5051899;28;20626;-47
2020/12/22 09:09:27;;;;;;;1.10;0.80;;;13.80;99.90;;;;;;5069519;28;21013;-50
2020/12/22 09:12:04;;;;;;;0.87;0.73;;;13.90;99.90;;;;;;5070111;28;20664;-48
2020/12/22 09:14:41;;;;;;;1.53;1.00;;;13.90;99.90;;;;;;5070081;28;20667;-47
2020/12/22 09:17:08;;;;;;;0.93;0.60;;;14.00;99.90;;;;;;5051901;28;20625;-48
2020/12/22 09:19:42;;;;;;;1.00;0.70;;;14.00;99.90;;;;;;5070503;28;20681;-47
2020/12/22 09:22:09;;;;;;;1.53;1.33;;;14.00;99.90;;;;;;5089854;28;20727;-48
2020/12/22 09:24:36;;;;;;;1.10;1.00;;;14.00;99.90;;;;;;5089712;28;21260;-47
2020/12/22 09:27:04;;;;;;;0.70;0.70;;;14.10;99.90;;;;;;5090345;28;20609;-47
2020/12/22 09:29:31;;;;;;;2.00;0.90;;;14.10;99.90;;;;;;5090231;28;20727;-47
2020/12/22 09:31:59;;;;;;;1.73;0.70;;;14.20;99.90;;;;;;5090021;28;20698;-47
2020/12/22 09:34:27;;;;;;;4.00;0.90;;;14.20;99.90;;;;;;5089401;28;20991;-48
2020/12/22 09:36:55;;;;;;;1.43;0.97;;;14.20;99.90;;;;;;5090068;28;20656;-50
2020/12/22 09:39:22;;;;;;;0.90;0.70;;;14.30;99.90;;;;;;5089430;28;20660;-50
2020/12/22 09:41:49;;;;;;;1.23;1.13;;;14.30;99.90;;;;;;5089471;28;20819;-50
2020/12/22 09:44:16;;;;;;;1.27;0.97;;;14.30;99.90;;;;;;5079883;28;20618;-51
2020/12/22 09:46:45;;;;;;;1.13;0.70;;;14.30;99.90;;;;;;5060373;28;20712;-49
2020/12/22 09:49:12;;;;;;;1.17;0.60;;;14.30;99.90;;;;;;5070205;28;20653;-50
2020/12/22 09:51:38;;;;;;;0.97;0.70;;;14.30;99.90;;;;;;5087135;28;20659;-49
2020/12/22 09:54:06;;;;;;;0.80;0.77;;;14.30;99.90;;;;;;5070207;28;21204;-48
2020/12/22 09:56:33;;;;;;;2.67;1.07;;;14.30;99.90;;;;;;5069077;28;20771;-50
2020/12/22 09:58:59;;;;;;;1.33;0.87;;;14.30;99.90;;;;;;5068970;28;20681;-51
2020/12/22 10:01:26;;;;;;;1.30;0.90;;;14.30;99.90;;;;;;5068698;28;20831;-49
2020/12/22 10:03:53;;;;;;;1.20;0.90;;;14.30;99.90;;;;;;5069357;28;20664;-48
2020/12/22 10:06:20;;;;;;;1.27;1.03;;;14.40;99.90;;;;;;5069547;28;20939;-49
2020/12/22 10:08:47;;;;;;;1.13;0.70;;;14.40;99.90;;;;;;5069543;28;20683;-49
2020/12/22 10:11:17;;;;;;;1.90;1.07;;;14.50;99.90;;;;;;5069541;28;20656;-49
2020/12/22 10:13:43;;;;;;;1.53;0.60;;;14.50;99.90;;;;;;5069886;28;21136;-52
2020/12/22 10:16:11;;;;;;;0.77;0.70;;;14.50;99.90;;;;;;5069254;28;20653;-50
2020/12/22 10:18:37;;;;;;;1.27;0.80;;;14.60;99.90;;;;;;5068938;28;20734;-51
2020/12/22 10:21:05;;;;;;;1.77;1.10;;;14.60;99.90;;;;;;5082487;28;20659;-49
2020/12/22 10:23:32;;;;;;;0.73;0.60;;;14.70;99.90;;;;;;5089466;28;20648;-49
2020/12/22 10:25:58;;;;;;;1.17;0.63;;;14.70;99.90;;;;;;5089467;28;21026;-49
2020/12/22 10:28:26;;;;;;;1.90;0.60;;;14.70;99.90;;;;;;5089103;28;20712;-49
2020/12/22 10:30:53;;;;;;;0.77;0.73;;;14.70;99.90;;;;;;5089238;28;20648;-50
2020/12/22 10:33:20;;;;;;;1.07;0.80;;;14.70;99.90;;;;;;5088839;28;20648;-49
2020/12/22 10:35:47;;;;;;;3.20;0.70;;;14.70;99.90;;;;;;5076619;28;20677;-49
2020/12/22 10:38:15;;;;;;;1.67;1.00;;;14.70;99.90;;;;;;5069091;28;21027;-49
2020/12/22 10:40:42;;;;;;;1.87;0.83;;;14.70;99.90;;;;;;5070093;28;20668;-49
2020/12/22 10:43:08;;;;;;;0.77;0.70;;;14.80;99.90;;;;;;5069521;28;20681;-51
2020/12/22 10:45:36;;;;;;;1.20;0.70;;;14.80;99.90;;;;;;5069993;28;20661;-49
2020/12/22 10:48:03;;;;;;;1.40;0.87;;;14.80;99.90;;;;;;5070551;28;20671;-49
2020/12/22 10:50:30;;;;;;;1.33;1.17;;;14.80;99.90;;;;;;5078064;28;20663;-51
2020/12/22 10:52:57;;;;;;;1.00;0.77;;;14.80;99.90;;;;;;5077528;28;20645;-50
2020/12/22 10:55:23;;;;;;;1.17;0.80;;;14.80;99.90;;;;;;5062834;28;21061;-51
2020/12/22 10:57:50;;;;;;;2.20;0.70;;;14.80;99.90;;;;;;5053142;28;21410;-50
2020/12/22 11:00:17;;;;;;;0.80;0.70;;;14.80;99.90;;;;;;5072889;28;20671;-50
2020/12/22 11:02:46;;;;;;;0.83;0.83;;;14.80;99.90;;;;;;5072134;28;21074;-51
2020/12/22 11:05:12;;;;;;;0.70;0.57;;;14.80;99.90;;;;;;5071948;28;20660;-51
2020/12/22 11:07:43;;;;;;;1.97;0.93;;;14.80;99.90;;;;;;5072777;28;20981;-50
2020/12/22 11:10:10;;;;;;;0.73;0.70;;;14.80;99.90;;;;;;5072006;28;20675;-49
2020/12/22 11:12:37;;;;;;;1.80;0.87;;;14.90;99.90;;;;;;5072533;28;20697;-49
2020/12/22 11:15:04;;;;;;;1.47;0.70;;;14.90;99.90;;;;;;5071987;28;20724;-49
2020/12/22 11:17:30;;;;;;;0.60;0.53;;;14.90;99.90;;;;;;5061234;28;20658;-48
2020/12/22 11:19:58;;;;;;;0.70;0.63;;;14.90;99.90;;;;;;5067541;28;20737;-47
2020/12/22 11:22:25;;;;;;;1.00;0.90;;;15.00;99.90;;;;;;5069415;28;20685;-50
2020/12/22 11:24:51;;;;;;;1.13;0.97;;;15.00;99.90;;;;;;5052251;28;20961;-51
2020/12/22 11:27:18;;;;;;;1.17;0.60;;;15.00;99.90;;;;;;5043753;28;21099;-51
2020/12/22 11:29:45;;;;;;;2.40;1.10;;;15.10;99.80;;;;;;5072098;28;20718;-50
2020/12/22 11:32:12;;;;;;;0.70;0.70;;;15.10;99.80;;;;;;5055134;28;20664;-51
2020/12/22 11:34:39;;;;;;;0.97;0.87;;;15.20;99.90;;;;;;5051728;28;20653;-50
2020/12/22 11:37:06;;;;;;;0.83;0.60;;;15.20;99.60;;;;;;5069640;28;20665;-52
2020/12/22 11:39:33;;;;;;;1.23;0.70;;;15.30;99.50;;;;;;5072044;28;20641;-53
2020/12/22 11:42:01;;;;;;;2.33;0.77;;;15.30;99.50;;;;;;5071230;28;20696;-49
2020/12/22 11:44:28;;;;;;;0.90;0.73;;;15.30;99.40;;;;;;5072136;28;20617;-50
2020/12/22 11:46:55;;;;;;;1.07;1.00;;;15.40;99.60;;;;;;5071539;28;20653;-49
2020/12/22 11:49:23;;;;;;;0.87;0.73;;;15.40;99.50;;;;;;5072125;28;20680;-48
2020/12/22 11:51:55;;;;;;;1.00;0.70;;;15.50;99.40;;;;;;5067865;28;20653;-49
2020/12/22 11:54:23;;;;;;;0.70;0.50;;;15.50;99.30;;;;;;5071299;28;20664;-49
2020/12/22 11:56:50;;;;;;;1.17;0.90;;;15.60;99.30;;;;;;5058356;28;21015;-49
2020/12/22 11:59:17;;;;;;;0.73;0.60;;;15.60;99.10;;;;;;5051120;28;21202;-50
2020/12/22 12:01:44;;;;;;;0.80;0.60;;;15.60;99.10;;;;;;5051258;28;20681;-48
2020/12/22 12:04:11;;;;;;;2.03;0.93;;;15.60;98.90;;;;;;5051823;28;20621;-49
2020/12/22 12:06:38;;;;;;;0.87;0.60;;;15.60;99.00;;;;;;5033058;28;20982;-49
2020/12/22 12:09:05;;;;;;;0.60;0.47;;;15.60;98.90;;;;;;5051727;28;20698;-48
2020/12/22 12:11:33;;;;;;;1.13;0.50;;;15.60;98.90;;;;;;5063087;28;21053;-48
2020/12/22 12:14:00;;;;;;;1.13;0.70;;;15.60;98.90;;;;;;5071756;28;20661;-49
2020/12/22 12:16:27;;;;;;;0.70;0.60;;;15.60;98.80;;;;;;5071948;28;20661;-49
2020/12/22 12:18:53;;;;;;;0.80;0.40;;;15.60;98.70;;;;;;5071770;28;20680;-49
2020/12/22 12:21:20;;;;;;;0.60;0.50;;;15.60;98.70;;;;;;5059989;28;20625;-49
2020/12/22 12:23:47;;;;;;;0.60;0.50;;;15.60;98.60;;;;;;5071332;28;20716;-49
2020/12/22 12:26:14;;;;;;;0.70;0.63;;;15.70;98.60;;;;;;5069898;28;21029;-50
2020/12/22 12:28:41;;;;;;;0.60;0.43;;;15.80;98.60;;;;;;5051014;28;20812;-48
2020/12/22 12:31:12;;;;;;;1.53;0.67;;;15.90;98.10;;;;;;5051149;28;20679;-50
2020/12/22 12:33:39;;;;;;;1.60;0.60;;;16.00;98.00;;;;;;5050934;28;20665;-49
2020/12/22 12:36:06;;;;;;;0.57;0.40;;;16.00;98.00;;;;;;5058053;28;20646;-49
2020/12/22 12:38:32;;;;;;;0.80;0.50;;;15.90;97.90;;;;;;5070911;28;20688;-50
2020/12/22 12:40:59;;;;;;;0.77;0.47;;;15.80;98.10;;;;;;5064365;28;20660;-52
2020/12/22 12:43:26;;;;;;;0.70;0.50;;;15.70;98.40;;;;;;5050850;28;20690;-51
2020/12/22 12:45:54;;;;;;;0.60;0.50;;;15.60;98.40;;;;;;5050070;28;21185;-50
2020/12/22 12:48:20;;;;;;;0.50;0.40;;;15.60;98.80;;;;;;5050494;28;20682;-52
2020/12/22 12:50:47;;;;;;;0.50;0.50;;;15.60;98.50;;;;;;5045071;28;20872;-52